createdAt,value
2023-02-24T00:01:26.435Z,94645.84
2023-02-24T00:03:57.933Z,94650.19
2023-02-24T00:06:28.963Z,94646.34
2023-02-24T00:08:55.605Z,94650.66
2023-02-24T00:11:22.565Z,94656.34
2023-02-24T00:14:13.216Z,94653.66
2023-02-24T00:16:39.895Z,94653.47
2023-02-24T00:19:06.579Z,94659.84
2023-02-24T00:21:35.376Z,94651.22
2023-02-24T00:24:02.275Z,94653.84
2023-02-24T00:26:29.047Z,94649.81
2023-02-24T00:28:56.717Z,94649.66
2023-02-24T00:31:23.777Z,94646.41
2023-02-24T00:33:50.823Z,94643.06
2023-02-24T00:36:20.829Z,94642.94
2023-02-24T00:38:47.485Z,94636.28
2023-02-24T00:41:17.215Z,94632.03
2023-02-24T00:43:46.375Z,94630.50
2023-02-24T00:46:22.671Z,94633.69
2023-02-24T00:48:49.935Z,94630.72
2023-02-24T00:51:20.293Z,94639.19
2023-02-24T00:53:47.062Z,94632.13
2023-02-24T00:56:13.752Z,94631.63
2023-02-24T00:58:40.760Z,94626.34
2023-02-24T01:01:16.382Z,94624.19
2023-02-24T01:03:45.007Z,94629.94
2023-02-24T01:06:13.092Z,94626.50
2023-02-24T01:08:41.099Z,94617.75
2023-02-24T01:11:07.761Z,94622.59
2023-02-24T01:13:34.521Z,94609.56
2023-02-24T01:16:01.226Z,94611.06
2023-02-24T01:18:27.918Z,94609.06
2023-02-24T01:20:54.548Z,94604.88
2023-02-24T01:23:21.173Z,94604.88
2023-02-24T01:25:47.824Z,94605.09
2023-02-24T01:28:14.503Z,94592.34
2023-02-24T01:30:41.172Z,94587.28
2023-02-24T01:33:07.971Z,94593.41
2023-02-24T01:35:34.840Z,94597.56
2023-02-24T01:38:01.447Z,94590.16
2023-02-24T01:40:28.112Z,94594.81
2023-02-24T01:42:54.723Z,94586.16
2023-02-24T01:45:28.334Z,94587.41
2023-02-24T01:48:02.153Z,94588.03
2023-02-24T01:50:29.713Z,94576.97
2023-02-24T01:53:02.170Z,94571.09
2023-02-24T01:55:35.991Z,94564.00
2023-02-24T01:58:11.546Z,94559.94
2023-02-24T02:00:40.114Z,94560.31
2023-02-24T02:03:20.278Z,94564.88
2023-02-24T02:05:47.002Z,94559.25
2023-02-24T02:08:16.084Z,94561.97
2023-02-24T02:10:46.219Z,94548.75
2023-02-24T02:13:15.584Z,94546.69
2023-02-24T02:15:56.911Z,94543.78
2023-02-24T02:18:42.184Z,94546.69
2023-02-24T02:21:25.689Z,94548.44
2023-02-24T02:24:00.630Z,94542.56
2023-02-24T02:27:00.168Z,94548.84
2023-02-24T02:30:18.247Z,94540.75
2023-02-24T02:33:14.326Z,94538.75
2023-02-24T02:35:54.139Z,94538.75
2023-02-24T02:38:43.886Z,94530.66
2023-02-24T02:41:28.813Z,94538.88
2023-02-24T02:44:03.982Z,94537.75
2023-02-24T02:46:43.804Z,94540.75
2023-02-24T02:49:25.869Z,94539.59
2023-02-24T02:52:02.973Z,94526.72
2023-02-24T02:54:43.755Z,94530.88
2023-02-24T02:57:18.494Z,94523.41
2023-02-24T03:00:06.104Z,94518.81
2023-02-24T03:02:33.406Z,94523.06
2023-02-24T03:05:03.596Z,94515.63
2023-02-24T03:07:36.859Z,94517.00
2023-02-24T03:10:11.414Z,94518.38
2023-02-24T03:12:41.725Z,94519.69
2023-02-24T03:15:12.627Z,94515.03
2023-02-24T03:17:44.000Z,94509.66
2023-02-24T03:20:23.280Z,94508.16
2023-02-24T03:23:00.333Z,94512.47
2023-02-24T03:25:39.309Z,94510.56
2023-02-24T03:28:15.690Z,94513.28
2023-02-24T03:30:59.807Z,94518.47
2023-02-24T03:33:39.799Z,94514.66
2023-02-24T03:36:06.775Z,94515.03
2023-02-24T03:38:34.810Z,94511.00
2023-02-24T03:41:01.453Z,94508.78
2023-02-24T03:43:36.472Z,94507.56
2023-02-24T03:46:05.438Z,94510.56
2023-02-24T03:48:37.149Z,94515.09
2023-02-24T03:51:04.552Z,94526.66
2023-02-24T03:53:43.025Z,94512.25
2023-02-24T03:56:21.424Z,94501.22
2023-02-24T03:59:09.604Z,94505.59
2023-02-24T04:02:11.541Z,94500.16
2023-02-24T04:04:48.864Z,94510.03
2023-02-24T04:07:31.882Z,94511.28
2023-02-24T04:10:24.240Z,94515.13
2023-02-24T04:12:57.512Z,94512.81
2023-02-24T04:15:33.861Z,94514.13
2023-02-24T04:18:09.296Z,94511.72
2023-02-24T04:20:38.283Z,94516.00
2023-02-24T04:23:11.531Z,94516.69
2023-02-24T04:25:42.322Z,94508.97
2023-02-24T04:28:12.149Z,94504.34
2023-02-24T04:30:43.428Z,94503.78
2023-02-24T04:33:10.242Z,94505.56
2023-02-24T04:35:37.245Z,94502.44
2023-02-24T04:38:04.889Z,94505.00
2023-02-24T04:40:31.502Z,94509.03
2023-02-24T04:42:58.308Z,94517.59
2023-02-24T04:45:28.408Z,94510.00
2023-02-24T04:48:00.374Z,94509.25
2023-02-24T04:50:29.529Z,94502.47
2023-02-24T04:52:59.333Z,94504.44
2023-02-24T04:55:27.881Z,94504.25
2023-02-24T04:57:54.685Z,94509.25
2023-02-24T05:00:22.273Z,94502.59
2023-02-24T05:02:50.649Z,94502.34
2023-02-24T05:05:19.339Z,94493.53
2023-02-24T05:07:45.973Z,94498.38
2023-02-24T05:10:12.624Z,94498.72
2023-02-24T05:12:39.333Z,94495.28
2023-02-24T05:15:07.798Z,94500.13
2023-02-24T05:17:36.964Z,94492.81
2023-02-24T05:20:05.185Z,94495.41
2023-02-24T05:22:31.893Z,94492.03
2023-02-24T05:24:58.594Z,94499.50
2023-02-24T05:27:25.265Z,94494.31
2023-02-24T05:29:53.369Z,94496.50
2023-02-24T05:32:21.869Z,94490.66
2023-02-24T05:34:48.643Z,94482.63
2023-02-24T05:37:15.266Z,94476.66
2023-02-24T05:39:42.174Z,94475.19
2023-02-24T05:42:08.789Z,94475.78
2023-02-24T05:44:35.970Z,94470.69
2023-02-24T05:47:03.063Z,94467.38
2023-02-24T05:49:32.741Z,94460.41
2023-02-24T05:52:02.561Z,94457.69
2023-02-24T05:54:35.665Z,94468.66
2023-02-24T05:57:05.562Z,94459.16
2023-02-24T05:59:33.363Z,94454.53
2023-02-24T06:02:06.602Z,94456.66
2023-02-24T06:04:33.897Z,94446.94
2023-02-24T06:07:00.622Z,94450.00
2023-02-24T06:09:27.246Z,94453.41
2023-02-24T06:11:53.933Z,94447.06
2023-02-24T06:14:24.470Z,94454.13
2023-02-24T06:16:51.077Z,94450.09
2023-02-24T06:19:17.741Z,94458.94
2023-02-24T06:21:44.594Z,94461.56
2023-02-24T06:24:15.248Z,94457.91
2023-02-24T06:26:42.661Z,94460.50
2023-02-24T06:29:17.050Z,94464.72
2023-02-24T06:31:44.784Z,94469.31
2023-02-24T06:34:13.114Z,94472.28
2023-02-24T06:36:40.048Z,94468.53
2023-02-24T06:39:06.944Z,94469.78
2023-02-24T06:41:36.425Z,94467.75
2023-02-24T06:44:03.516Z,94469.66
2023-02-24T06:46:30.224Z,94468.88
2023-02-24T06:48:57.006Z,94476.31
2023-02-24T06:51:24.320Z,94474.09
2023-02-24T06:53:51.810Z,94471.00
2023-02-24T06:56:18.582Z,94466.22
2023-02-24T06:58:50.637Z,94470.28
2023-02-24T07:01:20.980Z,94467.03
2023-02-24T07:03:48.388Z,94468.66
2023-02-24T07:06:15.006Z,94480.75
2023-02-24T07:08:41.654Z,94476.56
2023-02-24T07:11:08.279Z,94482.31
2023-02-24T07:13:34.984Z,94484.81
2023-02-24T07:16:02.633Z,94478.47
2023-02-24T07:18:29.481Z,94478.44
2023-02-24T07:20:56.297Z,94486.66
2023-02-24T07:23:22.891Z,94481.47
2023-02-24T07:25:49.505Z,94486.44
2023-02-24T07:28:16.222Z,94488.06
2023-02-24T07:30:42.929Z,94481.50
2023-02-24T07:33:09.606Z,94471.38
2023-02-24T07:35:36.243Z,94475.28
2023-02-24T07:38:04.360Z,94465.84
2023-02-24T07:40:34.438Z,94463.88
2023-02-24T07:43:01.618Z,94461.34
2023-02-24T07:45:28.749Z,94466.34
2023-02-24T07:47:55.941Z,94471.00
2023-02-24T07:50:22.587Z,94467.94
2023-02-24T07:52:49.310Z,94468.19
2023-02-24T07:55:16.002Z,94469.94
2023-02-24T07:57:42.916Z,94459.00
2023-02-24T08:00:12.179Z,94462.34
2023-02-24T08:02:39.864Z,94459.09
2023-02-24T08:05:06.647Z,94454.25
2023-02-24T08:07:33.871Z,94452.13
2023-02-24T08:10:00.617Z,94453.41
2023-02-24T08:12:27.959Z,94458.78
2023-02-24T08:14:55.911Z,94459.25
2023-02-24T08:17:25.454Z,94450.69
2023-02-24T08:19:54.718Z,94444.34
2023-02-24T08:22:21.475Z,94450.31
2023-02-24T08:25:00.162Z,94456.34
2023-02-24T08:27:29.294Z,94447.66
2023-02-24T08:29:57.545Z,94439.38
2023-02-24T08:32:28.444Z,94430.06
2023-02-24T08:34:55.157Z,94423.78
2023-02-24T08:37:25.126Z,94421.25
2023-02-24T08:39:51.830Z,94423.91
2023-02-24T08:42:18.451Z,94415.06
2023-02-24T08:44:45.167Z,94410.88
2023-02-24T08:47:12.039Z,94424.94
2023-02-24T08:49:38.672Z,94426.44
2023-02-24T08:52:05.294Z,94424.53
2023-02-24T08:54:32.076Z,94412.69
2023-02-24T08:57:00.163Z,94410.56
2023-02-24T08:59:27.354Z,94406.00
2023-02-24T09:02:04.288Z,94405.78
2023-02-24T09:04:31.590Z,94410.19
2023-02-24T09:07:10.822Z,94408.00
2023-02-24T09:09:37.821Z,94401.63
2023-02-24T09:12:04.493Z,94402.69
2023-02-24T09:14:33.771Z,94400.00
2023-02-24T09:17:00.396Z,94406.22
2023-02-24T09:19:27.052Z,94407.56
2023-02-24T09:21:53.673Z,94396.50
2023-02-24T09:24:20.299Z,94394.53
2023-02-24T09:26:46.898Z,94385.47
2023-02-24T09:29:14.126Z,94381.50
2023-02-24T09:31:41.191Z,94380.19
2023-02-24T09:34:09.122Z,94373.88
2023-02-24T09:36:38.273Z,94372.34
2023-02-24T09:39:04.980Z,94363.22
2023-02-24T09:41:37.237Z,94365.44
2023-02-24T09:44:12.177Z,94363.41
2023-02-24T09:46:51.936Z,94366.25
2023-02-24T09:49:21.125Z,94355.22
2023-02-24T09:51:47.769Z,94356.94
2023-02-24T09:54:18.837Z,94353.63
2023-02-24T09:56:59.070Z,94345.88
2023-02-24T09:59:57.054Z,94335.91
2023-02-24T10:02:43.368Z,94340.34
2023-02-24T10:05:18.992Z,94338.59
2023-02-24T10:07:47.345Z,94339.69
2023-02-24T10:10:26.294Z,94331.91
2023-02-24T10:13:03.277Z,94343.56
2023-02-24T10:15:35.712Z,94339.59
2023-02-24T10:18:30.302Z,94339.84
2023-02-24T10:21:29.948Z,94337.19
2023-02-24T10:24:32.021Z,94343.50
2023-02-24T10:27:17.702Z,94333.13
2023-02-24T10:30:28.169Z,94333.34
2023-02-24T10:33:07.667Z,94338.44
2023-02-24T10:35:34.382Z,94336.50
2023-02-24T10:38:02.701Z,94337.13
2023-02-24T10:40:29.305Z,94334.56
2023-02-24T10:43:07.704Z,94326.16
2023-02-24T10:45:39.387Z,94322.19
2023-02-24T10:48:07.323Z,94321.66
2023-02-24T10:50:55.471Z,94314.75
2023-02-24T10:53:28.063Z,94307.28
2023-02-24T10:55:59.061Z,94306.81
2023-02-24T10:58:25.629Z,94307.50
2023-02-24T11:00:52.240Z,94303.50
2023-02-24T11:03:32.443Z,94308.47
2023-02-24T11:05:59.443Z,94299.19
2023-02-24T11:08:29.251Z,94305.88
2023-02-24T11:10:56.019Z,94301.50
2023-02-24T11:13:23.118Z,94299.00
2023-02-24T11:15:54.393Z,94297.19
2023-02-24T11:18:25.422Z,94298.00
2023-02-24T11:21:12.885Z,94291.44
2023-02-24T11:23:46.492Z,94277.38
2023-02-24T11:26:22.986Z,94282.88
2023-02-24T11:29:20.494Z,94277.59
2023-02-24T11:32:05.993Z,94277.00
2023-02-24T11:34:57.562Z,94266.81
2023-02-24T11:37:37.820Z,94265.88
2023-02-24T11:40:24.290Z,94258.94
2023-02-24T11:43:02.567Z,94256.09
2023-02-24T11:45:35.196Z,94247.94
2023-02-24T11:48:27.220Z,94245.22
2023-02-24T11:51:17.610Z,94250.38
2023-02-24T11:53:44.191Z,94245.47
2023-02-24T11:56:19.417Z,94242.25
2023-02-24T11:59:01.537Z,94241.97
2023-02-24T12:01:56.599Z,94235.22
2023-02-24T12:04:40.621Z,94236.50
2023-02-24T12:07:16.989Z,94233.50
2023-02-24T12:10:14.180Z,94223.50
2023-02-24T12:13:02.840Z,94224.72
2023-02-24T12:15:45.392Z,94218.69
2023-02-24T12:18:27.734Z,94210.00
2023-02-24T12:21:18.521Z,94210.75
2023-02-24T12:23:48.416Z,94195.78
2023-02-24T12:26:22.075Z,94195.97
2023-02-24T12:29:09.190Z,94196.97
2023-02-24T12:31:35.827Z,94196.56
2023-02-24T12:34:11.743Z,94188.81
2023-02-24T12:36:58.334Z,94184.94
2023-02-24T12:39:36.815Z,94185.22
2023-02-24T12:42:24.084Z,94183.66
2023-02-24T12:45:14.214Z,94182.72
2023-02-24T12:48:18.663Z,94181.47
2023-02-24T12:51:00.101Z,94182.94
2023-02-24T12:53:44.570Z,94176.31
2023-02-24T12:56:22.653Z,94173.69
2023-02-24T12:59:02.125Z,94164.16
2023-02-24T13:01:59.624Z,94159.09
2023-02-24T13:04:41.963Z,94148.75
2023-02-24T13:07:39.754Z,94147.91
2023-02-24T13:10:22.425Z,94143.13
2023-02-24T13:12:58.121Z,94142.91
2023-02-24T13:15:27.738Z,94136.78
2023-02-24T13:17:58.157Z,94131.50
2023-02-24T13:20:30.673Z,94125.66
2023-02-24T13:22:59.477Z,94124.81
2023-02-24T13:25:34.061Z,94126.66
2023-02-24T13:28:07.222Z,94121.34
2023-02-24T13:30:41.817Z,94116.81
2023-02-24T13:33:17.536Z,94118.66
2023-02-24T13:35:50.754Z,94113.97
2023-02-24T13:38:32.569Z,94114.53
2023-02-24T13:41:22.742Z,94097.78
2023-02-24T13:44:18.823Z,94109.41
2023-02-24T13:46:56.856Z,94093.78
2023-02-24T13:49:51.039Z,94093.69
2023-02-24T13:53:05.677Z,94082.91
2023-02-24T13:55:58.571Z,94089.53
2023-02-24T13:58:47.056Z,94086.41
2023-02-24T14:01:18.032Z,94085.09
2023-02-24T14:04:07.118Z,94078.47
2023-02-24T14:06:34.390Z,94082.50
2023-02-24T14:09:04.926Z,94079.28
2023-02-24T14:11:37.042Z,94073.56
2023-02-24T14:14:03.952Z,94066.13
2023-02-24T14:16:37.194Z,94071.66
2023-02-24T14:19:03.960Z,94068.22
2023-02-24T14:21:35.262Z,94064.53
2023-02-24T14:24:12.798Z,94058.13
2023-02-24T14:26:48.996Z,94053.47
2023-02-24T14:29:21.749Z,94051.97
2023-02-24T14:31:54.360Z,94048.03
2023-02-24T14:34:25.286Z,94041.91
2023-02-24T14:36:56.927Z,94040.22
2023-02-24T14:39:26.993Z,94039.63
2023-02-24T14:42:07.863Z,94039.25
2023-02-24T14:44:40.169Z,94032.34
2023-02-24T14:47:11.554Z,94030.59
2023-02-24T14:49:38.425Z,94036.69
2023-02-24T14:52:07.875Z,94034.53
2023-02-24T14:54:43.484Z,94027.91
2023-02-24T14:57:22.514Z,94027.38
2023-02-24T14:59:54.362Z,94021.75
2023-02-24T15:02:28.321Z,94017.81
2023-02-24T15:04:58.032Z,94018.81
2023-02-24T15:07:34.040Z,94012.13
2023-02-24T15:10:02.667Z,94013.56
2023-02-24T15:12:29.450Z,94008.00
2023-02-24T15:15:19.756Z,94002.06
2023-02-24T15:17:53.443Z,93998.19
2023-02-24T15:20:34.006Z,93996.03
2023-02-24T15:23:01.892Z,93986.06
2023-02-24T15:25:42.268Z,93976.56
2023-02-24T15:28:24.459Z,93979.97
2023-02-24T15:31:11.021Z,93981.44
2023-02-24T15:33:44.764Z,93966.81
2023-02-24T15:36:33.866Z,93970.41
2023-02-24T15:39:19.593Z,93968.72
2023-02-24T15:41:47.692Z,93969.38
2023-02-24T15:44:27.658Z,93962.69
2023-02-24T15:46:56.751Z,93958.31
2023-02-24T15:49:23.554Z,93956.84
2023-02-24T15:51:54.282Z,93959.22
2023-02-24T15:54:31.162Z,93964.03
2023-02-24T15:57:02.520Z,93966.38
2023-02-24T15:59:30.205Z,93963.72
2023-02-24T16:01:56.876Z,93966.13
2023-02-24T16:04:23.813Z,93961.88
2023-02-24T16:06:54.994Z,93962.81
2023-02-24T16:09:31.118Z,93973.34
2023-02-24T16:11:59.831Z,93968.69
2023-02-24T16:14:26.528Z,93976.72
2023-02-24T16:16:53.291Z,93968.53
2023-02-24T16:19:19.999Z,93970.72
2023-02-24T16:21:46.599Z,93961.72
2023-02-24T16:24:13.238Z,93953.19
2023-02-24T16:26:40.801Z,93955.47
2023-02-24T16:29:15.509Z,93946.97
2023-02-24T16:31:42.879Z,93947.66
2023-02-24T16:34:17.788Z,93952.44
2023-02-24T16:36:44.428Z,93944.84
2023-02-24T16:39:14.162Z,93947.41
2023-02-24T16:41:41.012Z,93945.66
2023-02-24T16:44:07.607Z,93942.59
2023-02-24T16:46:37.893Z,93950.13
2023-02-24T16:49:09.754Z,93948.03
2023-02-24T16:51:36.392Z,93955.81
2023-02-24T16:54:03.170Z,93948.03
2023-02-24T16:56:29.768Z,93945.69
2023-02-24T16:58:56.390Z,93944.63
2023-02-24T17:01:23.041Z,93944.38
2023-02-24T17:03:52.857Z,93949.22
2023-02-24T17:06:22.401Z,93952.47
2023-02-24T17:08:50.751Z,93951.59
2023-02-24T17:11:26.261Z,93943.22
2023-02-24T17:13:52.959Z,93946.09
2023-02-24T17:16:19.720Z,93948.31
2023-02-24T17:18:47.793Z,93950.41
2023-02-24T17:21:15.460Z,93960.03
2023-02-24T17:23:42.648Z,93957.59
2023-02-24T17:26:13.912Z,93954.72
2023-02-24T17:28:40.846Z,93961.25
2023-02-24T17:31:07.579Z,93961.75
2023-02-24T17:33:34.461Z,93959.94
2023-02-24T17:36:01.147Z,93962.72
2023-02-24T17:38:27.737Z,93968.00
2023-02-24T17:40:54.359Z,93966.22
2023-02-24T17:43:21.250Z,93971.78
2023-02-24T17:45:48.294Z,93966.50
2023-02-24T17:48:16.063Z,93968.31
2023-02-24T17:50:45.597Z,93962.41
2023-02-24T17:53:12.724Z,93970.59
2023-02-24T17:55:40.352Z,93963.09
2023-02-24T17:58:09.749Z,93974.94
2023-02-24T18:00:36.397Z,93974.94
2023-02-24T18:03:05.765Z,93974.41
2023-02-24T18:05:32.625Z,93977.31
2023-02-24T18:07:59.324Z,93975.22
2023-02-24T18:10:26.022Z,93972.78
2023-02-24T18:12:52.940Z,93976.50
2023-02-24T18:15:19.640Z,93989.97
2023-02-24T18:17:46.322Z,93985.44
2023-02-24T18:20:13.138Z,93986.56
2023-02-24T18:22:39.837Z,93990.31
2023-02-24T18:25:06.733Z,93985.00
2023-02-24T18:27:33.394Z,93992.91
2023-02-24T18:29:59.994Z,93993.72
2023-02-24T18:32:26.922Z,93983.44
2023-02-24T18:34:53.705Z,93990.31
2023-02-24T18:37:23.375Z,93997.78
2023-02-24T18:39:50.807Z,94000.72
2023-02-24T18:42:17.429Z,94002.97
2023-02-24T18:44:44.054Z,93999.78
2023-02-24T18:47:10.698Z,94003.03
2023-02-24T18:49:37.466Z,94003.34
2023-02-24T18:52:04.633Z,93999.63
2023-02-24T18:54:32.850Z,94002.03
2023-02-24T18:56:59.592Z,94000.44
2023-02-24T18:59:26.283Z,94006.75
2023-02-24T19:01:52.966Z,94000.44
2023-02-24T19:04:19.710Z,94006.28
2023-02-24T19:06:46.446Z,94004.94
2023-02-24T19:09:13.142Z,94006.25
2023-02-24T19:11:40.953Z,94009.97
2023-02-24T19:14:09.848Z,94002.00
2023-02-24T19:16:37.736Z,94014.69
2023-02-24T19:19:04.458Z,94006.72
2023-02-24T19:21:32.653Z,94018.63
2023-02-24T19:24:00.695Z,94014.66
2023-02-24T19:26:28.337Z,94013.03
2023-02-24T19:29:00.479Z,94015.19
2023-02-24T19:31:30.333Z,94026.06
2023-02-24T19:34:00.376Z,94029.25
2023-02-24T19:36:28.865Z,94030.34
2023-02-24T19:38:55.547Z,94026.59
2023-02-24T19:41:22.255Z,94033.22
2023-02-24T19:43:48.922Z,94031.59
2023-02-24T19:46:17.220Z,94040.59
2023-02-24T19:48:44.526Z,94033.88
2023-02-24T19:51:18.348Z,94035.94
2023-02-24T19:53:45.449Z,94045.28
2023-02-24T19:56:14.892Z,94039.16
2023-02-24T19:58:41.525Z,94039.91
2023-02-24T20:01:12.511Z,94045.06
2023-02-24T20:03:41.507Z,94042.13
2023-02-24T20:06:28.490Z,94047.31
2023-02-24T20:08:56.639Z,94049.03
2023-02-24T20:11:24.465Z,94056.97
2023-02-24T20:13:52.593Z,94065.69
2023-02-24T20:16:21.378Z,94065.94
2023-02-24T20:18:48.199Z,94068.22
2023-02-24T20:21:14.901Z,94066.94
2023-02-24T20:23:41.986Z,94088.81
2023-02-24T20:26:11.229Z,94079.50
2023-02-24T20:28:37.834Z,94067.44
2023-02-24T20:31:10.885Z,94063.09
2023-02-24T20:33:39.561Z,94069.66
2023-02-24T20:36:12.170Z,94064.72
2023-02-24T20:38:38.814Z,94066.28
2023-02-24T20:41:06.430Z,94074.72
2023-02-24T20:43:34.152Z,94071.09
2023-02-24T20:46:14.055Z,94072.66
2023-02-24T20:48:40.802Z,94076.28
2023-02-24T20:51:08.290Z,94073.84
2023-02-24T20:53:41.988Z,94078.75
2023-02-24T20:56:14.792Z,94080.31
2023-02-24T20:58:43.007Z,94083.94
2023-02-24T21:01:11.411Z,94089.03
2023-02-24T21:03:38.072Z,94081.69
2023-02-24T21:06:10.243Z,94099.06
2023-02-24T21:08:37.224Z,94093.72
2023-02-24T21:11:04.435Z,94096.44
2023-02-24T21:13:31.046Z,94100.03
2023-02-24T21:15:57.758Z,94108.34
2023-02-24T21:18:24.440Z,94105.25
2023-02-24T21:20:59.458Z,94115.47
2023-02-24T21:23:26.167Z,94115.09
2023-02-24T21:25:54.300Z,94120.97
2023-02-24T21:28:23.888Z,94120.75
2023-02-24T21:30:50.623Z,94136.88
2023-02-24T21:33:18.472Z,94146.38
2023-02-24T21:35:56.088Z,94125.63
2023-02-24T21:38:22.711Z,94131.78
2023-02-24T21:40:49.398Z,94130.69
2023-02-24T21:43:16.027Z,94134.22
2023-02-24T21:45:42.648Z,94142.16
2023-02-24T21:48:09.308Z,94142.13
2023-02-24T21:50:35.917Z,94139.56
2023-02-24T21:53:02.559Z,94152.34
2023-02-24T21:55:29.244Z,94151.72
2023-02-24T21:57:55.909Z,94160.03
2023-02-24T22:00:22.532Z,94172.72
2023-02-24T22:02:54.177Z,94167.09
2023-02-24T22:05:23.296Z,94160.19
2023-02-24T22:07:51.316Z,94166.75
2023-02-24T22:10:21.482Z,94172.56
2023-02-24T22:12:49.143Z,94165.47
2023-02-24T22:15:16.226Z,94165.94
2023-02-24T22:17:42.870Z,94167.63
2023-02-24T22:20:13.451Z,94171.06
2023-02-24T22:22:42.661Z,94174.72
2023-02-24T22:25:13.197Z,94183.94
2023-02-24T22:27:41.045Z,94182.41
2023-02-24T22:30:09.869Z,94186.56
2023-02-24T22:32:36.599Z,94186.47
2023-02-24T22:35:03.338Z,94182.81
2023-02-24T22:37:30.088Z,94196.72
2023-02-24T22:39:56.759Z,94194.25
2023-02-24T22:42:23.386Z,94196.31
2023-02-24T22:44:49.997Z,94186.94
2023-02-24T22:47:16.872Z,94190.81
2023-02-24T22:49:43.650Z,94194.47
2023-02-24T22:52:10.360Z,94194.78
2023-02-24T22:54:37.153Z,94202.19
2023-02-24T22:57:03.922Z,94208.38
2023-02-24T22:59:30.546Z,94209.16
2023-02-24T23:01:57.131Z,94207.97
2023-02-24T23:04:23.865Z,94225.16
2023-02-24T23:06:50.513Z,94222.50
2023-02-24T23:09:17.432Z,94236.25
2023-02-24T23:11:44.021Z,94236.81
2023-02-24T23:14:13.058Z,94226.09
2023-02-24T23:16:41.657Z,94208.34
2023-02-24T23:19:13.159Z,94208.19
2023-02-24T23:21:42.678Z,94217.72
2023-02-24T23:24:11.167Z,94211.50
2023-02-24T23:26:44.692Z,94205.44
2023-02-24T23:29:13.726Z,94203.38
2023-02-24T23:31:42.122Z,94207.72
2023-02-24T23:34:10.675Z,94210.63
2023-02-24T23:36:40.633Z,94211.19
2023-02-24T23:39:10.282Z,94216.25
2023-02-24T23:41:38.229Z,94209.97
2023-02-24T23:44:05.963Z,94205.22
2023-02-24T23:46:34.940Z,94200.78
2023-02-24T23:49:01.631Z,94198.47
2023-02-24T23:51:38.682Z,94194.25
2023-02-24T23:54:13.305Z,94191.44
2023-02-24T23:56:39.942Z,94200.31
2023-02-24T23:59:07.280Z,94198.78
